Hovedside
METAR-TAF:

METAR-TAF

Lufthavner :

Esenboğa internasjonale lufthavn

Ankara Esenboğa, Tyrkia

breddegrad: 40-07N, lengdegrad: 032-59E, høyde over havet: 953 m

Gjeldene værobservasjon

Denne rapporten ble laget for 27 minutter siden, klokken 09:50 UTC
Vind 13 kt fra Øst-nordøst
Temperatur 23°C
Luftfuktighet 38%
Trykk 1016 hPa
Sikt 10 km eller mer
Få skyer i en høyde av 4000 ft
Spredte skyer i en høyde av 18000 ft

METAR: LTAC 200950Z 07013KT 9999 FEW040 SCT180 23/08 Q1016 NOSIG RMK RWY21L 07013KT 030V090 RWY03L 07012KT RWY21R 08014KT

Tid: 13:17 (10:17 UTC)

Varsel

Denne rapporten ble laget for 5 timer og 37 minutter siden, klokken 04:40 UTC
Varsel gyldig fra 20. klokken 06 UTC til 21. klokken 06 UTC
Vind 8 kt fra Nordøst
Sikt 10 km eller mer
Spredte skyer i en høyde av 4000 ft
Blir
fra 20. klokken 16 UTC til 20. klokken 18 UTC
Sikt 10 km eller mer
ingen skyer under 1500 m og ingen bygeskyer

TAF: LTAC 200440Z 2006/2106 04008KT 9999 SCT040 BECMG 2016/2018 CAVOK

Værobservasjoner og værvarsel for over 4000 flyplasser (METAR- og TAF-rapporter).

Tilgjengelige stasjoner er representert av de røde og gule prikkene på kartet.

Hold musepekeren over prikken for å se navnet på stasjonen.

Klikk så for å se værobservasjoner og -varsler.

For å forandre kartet kan du klikke på den grønne knappen med svart kryss for å zoome inn, på den grønne knappen med strek for å zoome ut, eller på de grønne pilene for å se tilstøtende kart.


METAR-TAF: